Time;durP1;ratioP1;P1;durP2;ratioP2;P2;SDS_P1;SDS_P2;PMS_P1;PMS_P2;Temp;Humidity;BMP_temperature;BMP_pressure;BME280_temperature;BME280_humidity;BME280_pressure;Samples;Min_cycle;Max_cycle;Signal;HPM_P1;HPM_P2
2022/06/02 00:02:39;;;;;;;2.05;0.80;;;;;;;14.04;100.00;98823.22;5108482;28;20046;-63
2022/06/02 00:06:08;;;;;;;2.13;0.90;;;;;;;14.07;100.00;98814.25;5108101;28;20164;-66
2022/06/02 00:09:01;;;;;;;1.70;0.93;;;;;;;13.96;100.00;98810.69;5104316;28;20075;-69
2022/06/02 00:12:11;;;;;;;1.25;0.80;;;;;;;13.90;100.00;98812.03;5094658;28;20112;-63
2022/06/02 00:15:02;;;;;;;1.42;0.80;;;;;;;13.85;100.00;98811.56;5094753;28;20478;-64
2022/06/02 00:17:51;;;;;;;;;;;;;;;13.95;100.00;98811.66;5104405;28;20059;-66
2022/06/02 00:20:54;;;;;;;1.73;0.93;;;;;;;13.74;100.00;98819.50;5101017;28;19973;-63
2022/06/02 00:23:51;;;;;;;1.65;1.10;;;;;;;13.74;100.00;98824.75;5101284;28;20063;-64
2022/06/02 00:27:04;;;;;;;2.97;1.13;;;;;;;13.71;100.00;98830.28;5114683;28;20053;-65
2022/06/02 00:29:58;;;;;;;1.58;0.98;;;;;;;14.07;100.00;98825.59;5105207;28;20067;-64
2022/06/02 00:32:59;;;;;;;1.90;0.80;;;;;;;13.87;100.00;98814.06;5090676;28;20036;-64
2022/06/02 00:35:51;;;;;;;3.05;1.10;;;;;;;13.72;100.00;98817.00;5122693;28;20032;-64
2022/06/02 00:38:37;;;;;;;;;;;;;;;13.78;100.00;98811.22;5103708;28;20044;-63
2022/06/02 00:41:29;;;;;;;1.63;0.88;;;;;;;13.76;100.00;98813.13;5114436;28;20286;-65
2022/06/02 00:44:55;;;;;;;1.60;0.90;;;;;;;13.53;100.00;98800.03;5093744;28;20048;-63
2022/06/02 00:48:04;;;;;;;1.52;0.90;;;;;;;13.60;100.00;98799.53;5102058;28;20423;-63
2022/06/02 00:51:03;;;;;;;1.98;1.05;;;;;;;13.69;100.00;98806.72;5113958;28;20490;-63
2022/06/02 00:57:32;;;;;;;4.80;0.77;;;;;;;13.62;100.00;98805.53;5110100;28;20486;-64
2022/06/02 01:00:28;;;;;;;1.27;0.75;;;;;;;13.83;100.00;98807.38;5138531;27;20734;-64
2022/06/02 01:03:22;;;;;;;1.33;0.90;;;;;;;13.88;100.00;98811.31;5114495;28;20035;-63
2022/06/02 01:06:27;;;;;;;2.25;0.93;;;;;;;13.82;100.00;98811.81;5113813;28;20074;-64
2022/06/02 01:09:33;;;;;;;1.20;0.70;;;;;;;13.91;100.00;98815.47;5094999;28;20400;-64
2022/06/02 01:12:30;;;;;;;1.58;0.70;;;;;;;14.09;100.00;98813.13;5105603;28;20344;-66
2022/06/02 01:15:21;;;;;;;1.45;0.70;;;;;;;14.10;100.00;98814.78;5102182;28;20492;-65
2022/06/02 01:18:31;;;;;;;1.17;0.73;;;;;;;14.09;100.00;98823.66;5113575;28;20364;-64
2022/06/02 01:21:21;;;;;;;2.38;0.80;;;;;;;13.88;100.00;98821.84;5113590;27;20398;-65
2022/06/02 01:24:44;;;;;;;1.35;0.85;;;;;;;14.08;100.00;98822.00;5114181;28;20497;-65
2022/06/02 01:28:00;;;;;;;1.55;0.93;;;;;;;14.32;100.00;98806.91;5106540;28;20381;-65
2022/06/02 01:30:55;;;;;;;2.28;1.10;;;;;;;14.24;100.00;98812.81;5104839;28;20569;-65
2022/06/02 01:33:48;;;;;;;1.92;0.70;;;;;;;14.29;100.00;98803.59;5110586;28;20040;-65
2022/06/02 01:36:58;;;;;;;1.00;0.80;;;;;;;14.59;100.00;98790.56;5103088;28;20044;-64
2022/06/02 01:40:01;;;;;;;4.80;0.80;;;;;;;14.80;99.28;98781.84;5106326;28;20379;-65
2022/06/02 01:43:29;;;;;;;1.63;1.10;;;;;;;14.80;99.37;98797.66;5092649;28;20068;-64
2022/06/02 01:46:25;;;;;;;1.30;0.90;;;;;;;14.15;100.00;98823.16;5092975;28;20048;-64
2022/06/02 01:49:36;;;;;;;1.10;0.70;;;;;;;13.65;100.00;98818.44;5120842;27;20390;-65
2022/06/02 01:52:39;;;;;;;0.80;0.55;;;;;;;14.75;100.00;98819.09;5092973;28;20101;-65
2022/06/02 01:56:02;;;;;;;1.10;0.80;;;;;;;15.63;94.55;98822.19;5104484;28;20501;-64
2022/06/02 01:59:22;;;;;;;0.80;0.60;;;;;;;15.88;92.42;98814.69;5092055;28;20048;-65
2022/06/02 02:02:23;;;;;;;1.45;1.00;;;;;;;15.99;92.33;98809.31;5088286;28;20470;-65
2022/06/02 02:05:30;;;;;;;1.48;0.95;;;;;;;15.76;92.99;98811.38;5104572;28;20394;-65
2022/06/02 02:08:37;;;;;;;1.02;0.80;;;;;;;15.72;93.49;98815.25;5092581;28;20501;-66
2022/06/02 02:11:29;;;;;;;1.20;0.70;;;;;;;15.73;95.71;98815.09;5099181;28;20039;-64
2022/06/02 02:14:39;;;;;;;1.10;0.80;;;;;;;15.30;99.79;98819.75;5112761;28;20379;-64
2022/06/02 02:17:42;;;;;;;2.00;0.57;;;;;;;14.94;100.00;98820.19;5097170;28;20036;-65
2022/06/02 02:20:59;;;;;;;0.88;0.50;;;;;;;15.24;99.26;98834.31;5100032;28;20047;-64
2022/06/02 02:24:03;;;;;;;1.55;0.70;;;;;;;14.86;100.00;98839.31;5092537;28;20039;-65
2022/06/02 02:26:57;;;;;;;2.00;1.00;;;;;;;14.66;100.00;98833.91;5134309;27;20055;-65
2022/06/02 02:29:54;;;;;;;1.42;0.60;;;;;;;14.65;100.00;98840.16;5110242;28;20118;-65
2022/06/02 02:33:32;;;;;;;1.60;1.13;;;;;;;14.86;100.00;98846.38;5102149;28;20040;-66
2022/06/02 02:36:30;;;;;;;0.63;0.45;;;;;;;14.90;100.00;98846.00;5058595;28;20044;-64
2022/06/02 02:39:32;;;;;;;1.08;0.73;;;;;;;14.99;100.00;98847.00;5105351;28;20046;-65
2022/06/02 02:42:47;;;;;;;2.13;0.52;;;;;;;15.15;100.00;98850.94;5111307;28;20056;-64
2022/06/02 02:45:43;;;;;;;1.42;0.90;;;;;;;15.23;99.78;98847.63;5099148;28;20031;-65
2022/06/02 02:48:34;;;;;;;0.98;0.60;;;;;;;15.51;97.29;98867.19;5097394;28;20051;-65
2022/06/02 02:52:11;;;;;;;1.20;0.77;;;;;;;15.50;97.81;98865.50;5098754;28;20039;-65
2022/06/02 02:54:59;;;;;;;2.10;0.95;;;;;;;15.63;96.91;98859.97;5085272;28;20059;-67
2022/06/02 02:58:34;;;;;;;1.45;1.13;;;;;;;15.58;96.59;98880.69;5090489;28;20467;-66
2022/06/02 03:01:34;;;;;;;1.95;1.02;;;;;;;15.63;96.41;98889.03;5034782;28;20056;-64
2022/06/02 03:04:19;;;;;;;3.78;1.10;;;;;;;15.72;95.87;98895.31;5048766;28;20036;-65
2022/06/02 03:07:04;;;;;;;1.27;1.10;;;;;;;15.62;97.11;98895.28;5092197;28;20090;-65
2022/06/02 03:10:01;;;;;;;2.65;0.65;;;;;;;15.51;97.16;98890.94;5091159;28;20102;-65
2022/06/02 03:12:49;;;;;;;2.40;0.82;;;;;;;15.48;97.20;98891.22;5095800;28;20050;-65
2022/06/02 03:15:50;;;;;;;1.30;0.85;;;;;;;15.38;98.74;98893.00;5091890;28;20113;-66
2022/06/02 03:18:50;;;;;;;2.85;0.85;;;;;;;15.40;98.34;98896.34;5091159;28;20028;-65
2022/06/02 03:21:43;;;;;;;1.80;1.17;;;;;;;15.19;100.00;98896.38;5089978;28;20108;-64
2022/06/02 03:24:56;;;;;;;1.50;0.73;;;;;;;15.15;100.00;98898.44;5090189;28;20050;-65
2022/06/02 03:27:54;;;;;;;1.20;0.93;;;;;;;15.41;99.88;98891.91;5103973;28;20039;-64
2022/06/02 03:31:01;;;;;;;4.40;1.40;;;;;;;14.70;100.00;98895.13;5101178;28;20048;-66
2022/06/02 03:34:01;;;;;;;4.07;1.48;;;;;;;14.66;100.00;98885.78;5097392;28;20489;-64
2022/06/02 03:37:00;;;;;;;1.67;1.30;;;;;;;14.59;100.00;98890.72;5092815;28;20085;-63
2022/06/02 03:40:10;;;;;;;2.15;1.27;;;;;;;14.63;100.00;98894.81;5105154;28;20066;-63
2022/06/02 03:43:09;;;;;;;2.53;1.48;;;;;;;14.43;100.00;98901.72;5091411;28;20060;-64
2022/06/02 03:46:26;;;;;;;2.38;1.15;;;;;;;14.71;100.00;98903.84;5102753;28;20047;-66
2022/06/02 03:49:38;;;;;;;0.98;0.77;;;;;;;14.90;100.00;98904.00;5095463;28;20436;-66
2022/06/02 03:52:43;;;;;;;2.05;1.00;;;;;;;14.91;100.00;98896.94;5102188;28;20044;-65
2022/06/02 03:55:52;;;;;;;1.88;1.38;;;;;;;14.79;100.00;98904.06;5100532;28;20382;-67
2022/06/02 03:59:09;;;;;;;1.23;0.93;;;;;;;14.87;100.00;98901.63;5097656;28;20028;-64
2022/06/02 04:02:12;;;;;;;4.85;1.35;;;;;;;14.98;100.00;98894.63;5110689;28;20382;-65
2022/06/02 04:05:15;;;;;;;1.35;1.00;;;;;;;15.32;100.00;98894.38;5110351;28;20055;-64
2022/06/02 04:08:50;;;;;;;2.45;1.40;;;;;;;15.43;100.00;98898.72;5096893;28;20368;-73
2022/06/02 04:15:21;;;;;;;0.90;0.70;;;;;;;15.82;97.99;98912.97;5107406;28;20093;-64
2022/06/02 04:18:40;;;;;;;0.85;0.52;;;;;;;16.10;94.98;98915.84;5111350;28;20430;-64
2022/06/02 04:21:52;;;;;;;1.15;0.65;;;;;;;16.26;93.73;98915.28;5101972;28;20039;-65
2022/06/02 04:24:57;;;;;;;;;;;;;;;16.12;95.40;98908.63;5101838;28;20039;-64
2022/06/02 04:27:45;;;;;;;2.30;0.80;;;;;;;15.53;98.12;98914.56;5096308;28;19926;-64
2022/06/02 04:30:44;;;;;;;1.60;0.85;;;;;;;15.68;97.93;98922.13;5097320;28;20043;-64
2022/06/02 04:33:42;;;;;;;0.90;0.75;;;;;;;16.04;96.21;98927.81;5121789;28;20031;-64
2022/06/02 04:36:43;;;;;;;1.02;0.73;;;;;;;16.43;92.32;98921.72;5109619;28;20043;-63
2022/06/02 04:39:43;;;;;;;2.05;0.70;;;;;;;16.72;90.89;98931.44;5108199;28;20051;-65
2022/06/02 04:42:50;;;;;;;1.55;0.75;;;;;;;16.91;89.99;98927.06;5094132;27;20153;-64
2022/06/02 04:45:55;;;;;;;0.82;0.63;;;;;;;16.90;89.95;98935.16;5093134;28;20036;-65
2022/06/02 04:48:40;;;;;;;1.15;0.80;;;;;;;17.04;88.37;98932.06;5099742;28;20395;-66
2022/06/02 04:51:27;;;;;;;3.05;1.05;;;;;;;17.24;87.04;98938.19;5112851;28;20040;-64
2022/06/02 04:54:15;;;;;;;1.27;0.80;;;;;;;17.45;87.17;98928.34;5111223;28;20113;-67
2022/06/02 04:57:13;;;;;;;0.60;0.55;;;;;;;17.62;85.45;98934.69;5113357;28;20042;-64
2022/06/02 05:00:09;;;;;;;0.75;0.50;;;;;;;17.78;84.24;98934.03;5104510;28;20039;-65
2022/06/02 05:03:43;;;;;;;2.42;0.70;;;;;;;17.96;82.28;98938.53;5099460;28;20035;-64
2022/06/02 05:06:51;;;;;;;1.05;0.73;;;;;;;18.25;81.94;98942.84;5098466;28;20101;-65
2022/06/02 05:09:42;;;;;;;1.08;0.80;;;;;;;18.33;80.75;98956.16;5107104;28;20040;-65
2022/06/02 05:12:49;;;;;;;1.85;0.85;;;;;;;18.18;82.49;98955.84;5108675;28;20051;-65
2022/06/02 05:15:51;;;;;;;2.08;0.73;;;;;;;18.12;81.81;98958.22;5113807;28;20040;-66
2022/06/02 05:18:48;;;;;;;1.05;0.82;;;;;;;18.49;79.64;98970.56;5108706;28;20036;-65
2022/06/02 05:22:10;;;;;;;2.20;0.80;;;;;;;18.52;79.56;98964.97;5094348;28;20485;-67
2022/06/02 05:25:07;;;;;;;2.97;1.08;;;;;;;18.68;79.11;98966.09;5113048;28;20036;-66
2022/06/02 05:28:14;;;;;;;5.53;1.10;;;;;;;18.64;79.18;98962.09;5094321;28;20035;-65
2022/06/02 05:31:09;;;;;;;0.70;0.68;;;;;;;18.80;77.48;98970.16;5109147;28;20364;-64
2022/06/02 05:34:34;;;;;;;2.58;0.98;;;;;;;19.11;75.98;98976.06;5110626;28;20036;-67
2022/06/02 05:37:26;;;;;;;2.70;1.05;;;;;;;18.36;78.26;98972.78;5098464;28;20040;-66
2022/06/02 05:40:33;;;;;;;7.45;2.00;;;;;;;18.87;75.85;98969.56;5094663;28;20128;-64
2022/06/02 05:43:36;;;;;;;1.48;0.85;;;;;;;19.18;74.78;98977.94;5109558;28;20497;-70
2022/06/02 05:46:33;;;;;;;1.90;1.00;;;;;;;19.00;75.93;98977.94;5077436;28;20534;-64
2022/06/02 05:49:37;;;;;;;2.45;1.33;;;;;;;19.39;74.24;98982.03;5096640;28;20455;-65
2022/06/02 05:52:55;;;;;;;6.90;2.00;;;;;;;19.60;73.61;98980.00;5097101;28;20594;-64
2022/06/02 05:55:46;;;;;;;3.13;1.33;;;;;;;19.65;73.69;98977.69;5094697;28;20113;-65
2022/06/02 05:59:03;;;;;;;2.45;1.30;;;;;;;19.80;72.40;98991.19;5093764;28;20160;-65
2022/06/02 06:02:14;;;;;;;2.90;1.33;;;;;;;19.24;76.80;98987.13;5107531;28;20036;-68
2022/06/02 06:04:58;;;;;;;3.38;1.48;;;;;;;19.17;77.30;98984.25;5086238;28;20040;-64
2022/06/02 06:08:01;;;;;;;4.55;1.10;;;;;;;19.25;77.60;98988.78;5097156;28;20041;-64
2022/06/02 06:11:15;;;;;;;1.35;1.00;;;;;;;19.62;73.53;98978.84;5079368;28;20036;-67
2022/06/02 06:14:15;;;;;;;2.53;1.70;;;;;;;19.90;73.62;98975.97;5100085;28;20782;-65
2022/06/02 06:17:09;;;;;;;2.38;1.40;;;;;;;20.29;71.20;98976.41;5109351;27;20369;-65
2022/06/02 06:20:12;;;;;;;4.63;1.23;;;;;;;19.87;72.10;98976.28;5091775;28;20489;-66
2022/06/02 06:23:06;;;;;;;4.00;1.60;;;;;;;19.19;75.36;98974.28;5094226;28;20036;-67
2022/06/02 06:26:15;;;;;;;3.30;1.50;;;;;;;18.73;78.20;98977.09;5093757;28;20059;-66
2022/06/02 06:29:10;;;;;;;2.60;1.90;;;;;;;19.35;76.85;98971.88;5096025;28;20036;-63
2022/06/02 06:32:18;;;;;;;4.88;1.77;;;;;;;19.36;75.46;98982.34;5106107;28;20042;-64
2022/06/02 06:35:10;;;;;;;6.63;1.67;;;;;;;19.65;74.71;98988.31;5101675;28;20040;-63
2022/06/02 06:38:14;;;;;;;2.33;1.45;;;;;;;19.75;73.55;98993.53;5083238;28;20043;-65
2022/06/02 06:41:34;;;;;;;2.13;1.45;;;;;;;19.59;74.49;98995.09;5081691;28;20067;-65
2022/06/02 06:45:07;;;;;;;3.47;1.88;;;;;;;20.49;70.84;98997.41;5098153;28;20036;-64
2022/06/02 06:48:14;;;;;;;2.60;1.50;;;;;;;19.69;72.48;99006.44;5096860;28;20067;-64
2022/06/02 06:51:23;;;;;;;2.35;1.38;;;;;;;19.27;74.57;99002.72;5104945;28;20046;-64
2022/06/02 06:54:26;;;;;;;2.72;1.40;;;;;;;19.25;75.12;99009.16;5129185;27;20085;-65
2022/06/02 06:57:20;;;;;;;1.90;1.30;;;;;;;19.11;76.16;99006.09;5097622;28;20092;-65
2022/06/02 07:00:11;;;;;;;1.92;1.20;;;;;;;19.54;74.81;99008.84;5114455;27;20043;-65
2022/06/02 07:03:26;;;;;;;4.95;1.88;;;;;;;19.80;72.94;99009.78;5111008;28;20040;-64
2022/06/02 07:06:31;;;;;;;2.83;1.65;;;;;;;19.43;74.60;99027.72;5093558;28;20051;-65
2022/06/02 07:09:50;;;;;;;5.97;1.80;;;;;;;19.60;74.61;99033.94;5105609;28;20040;-65
2022/06/02 07:12:51;;;;;;;5.82;1.90;;;;;;;19.99;73.00;99030.00;5096449;28;20387;-65
2022/06/02 07:15:54;;;;;;;2.95;1.65;;;;;;;20.17;72.15;99035.22;5099357;28;20040;-64
2022/06/02 07:18:52;;;;;;;3.33;1.70;;;;;;;19.99;72.68;99042.44;5091349;28;20051;-65
2022/06/02 07:21:49;;;;;;;4.35;1.70;;;;;;;19.79;73.29;99051.50;5090370;28;20036;-62
2022/06/02 07:24:39;;;;;;;4.90;1.65;;;;;;;19.02;76.29;99052.09;5092592;28;20040;-62
2022/06/02 07:27:25;;;;;;;;;;;;;;;19.44;75.02;99046.16;5092990;28;20429;-62
2022/06/02 07:30:22;;;;;;;2.40;1.50;;;;;;;19.77;73.75;99056.13;5102370;28;19947;-63
2022/06/02 07:33:28;;;;;;;2.17;1.60;;;;;;;19.57;74.67;99059.00;5096565;28;20077;-62
2022/06/02 07:36:20;;;;;;;1.90;1.25;;;;;;;20.17;72.81;99059.16;5092340;28;20044;-63
2022/06/02 07:39:20;;;;;;;2.05;1.40;;;;;;;21.09;69.07;99059.34;5102394;28;20044;-64
2022/06/02 07:42:28;;;;;;;2.13;1.50;;;;;;;20.79;68.58;99062.47;5103310;28;20127;-64
2022/06/02 07:45:34;;;;;;;2.33;1.38;;;;;;;20.52;70.44;99071.56;5131971;27;20056;-64
2022/06/02 07:48:34;;;;;;;1.92;1.33;;;;;;;20.66;69.71;99067.44;5089962;28;20055;-63
2022/06/02 07:51:25;;;;;;;5.07;1.40;;;;;;;20.30;70.38;99064.03;5092193;28;20426;-63
2022/06/02 07:54:32;;;;;;;2.30;1.27;;;;;;;20.89;68.52;99069.47;5092265;28;20063;-64
2022/06/02 07:57:44;;;;;;;1.70;1.10;;;;;;;21.00;68.41;99087.81;5110774;28;20047;-67
2022/06/02 08:00:46;;;;;;;1.58;1.42;;;;;;;21.16;67.67;99080.81;5105357;28;20043;-64
2022/06/02 08:03:45;;;;;;;2.38;1.23;;;;;;;20.67;70.22;99083.25;5091534;28;20142;-64
2022/06/02 08:06:45;;;;;;;4.22;1.50;;;;;;;20.91;69.31;99088.75;5096473;28;20024;-64
2022/06/02 08:09:35;;;;;;;3.08;1.60;;;;;;;22.08;64.95;99094.81;5103724;28;20043;-64
2022/06/02 08:12:44;;;;;;;2.58;1.70;;;;;;;21.89;63.33;99091.56;5110948;28;20028;-65
2022/06/02 08:15:35;;;;;;;4.80;2.00;;;;;;;20.45;68.48;99082.00;5108167;28;20436;-64
2022/06/02 08:18:30;;;;;;;3.17;1.92;;;;;;;21.46;66.13;99083.78;5103632;28;20118;-65
2022/06/02 08:21:25;;;;;;;3.53;1.80;;;;;;;21.15;66.72;99087.16;5107676;28;20040;-64
2022/06/02 08:24:10;;;;;;;2.10;1.70;;;;;;;21.34;65.22;99090.47;5103347;28;20040;-64
2022/06/02 08:27:19;;;;;;;2.65;2.05;;;;;;;22.29;63.55;99085.41;5092460;28;20043;-64
2022/06/02 08:30:26;;;;;;;1.98;1.40;;;;;;;23.52;59.62;99091.13;5095281;28;20051;-65
2022/06/02 08:33:42;;;;;;;2.00;1.42;;;;;;;22.59;58.98;99087.41;5106296;28;20032;-65
2022/06/02 08:36:32;;;;;;;3.28;1.77;;;;;;;23.32;57.48;99091.59;5100351;28;20119;-65
2022/06/02 08:39:38;;;;;;;2.33;1.50;;;;;;;24.23;54.46;99092.53;5108485;28;20477;-65
2022/06/02 08:42:25;;;;;;;1.67;1.25;;;;;;;24.32;52.44;99094.06;5108594;28;20044;-65
2022/06/02 08:45:19;;;;;;;1.60;0.90;;;;;;;22.66;54.49;99090.25;5107461;28;20382;-64
2022/06/02 08:48:15;;;;;;;2.38;1.25;;;;;;;22.96;54.87;99077.88;5096713;28;20032;-64
2022/06/02 08:51:12;;;;;;;1.65;1.23;;;;;;;23.71;53.05;99087.91;5106912;28;20389;-65
2022/06/02 08:54:08;;;;;;;3.50;1.30;;;;;;;24.28;51.65;99090.13;5099441;28;20050;-64
2022/06/02 08:57:14;;;;;;;2.20;1.30;;;;;;;24.07;52.54;99091.66;5104613;28;20051;-64
2022/06/02 09:00:39;;;;;;;1.98;1.20;;;;;;;24.91;49.08;99088.75;5094276;28;20032;-65
2022/06/02 09:03:33;;;;;;;1.65;1.02;;;;;;;25.06;47.89;99088.69;5103454;28;20043;-65
2022/06/02 09:06:55;;;;;;;3.45;1.20;;;;;;;24.46;49.83;99092.41;5099331;28;20044;-64
2022/06/02 09:10:16;;;;;;;3.95;1.30;;;;;;;24.25;52.22;99098.53;5102841;28;20484;-64
2022/06/02 09:13:12;;;;;;;;;;;;;;;25.19;49.27;99095.19;5109083;28;20032;-63
2022/06/02 09:16:35;;;;;;;2.88;1.20;;;;;;;24.78;50.07;99104.66;5096102;28;19923;-63
2022/06/02 09:19:58;;;;;;;2.00;1.60;;;;;;;24.52;50.60;99104.19;5092152;28;20040;-63
2022/06/02 09:23:04;;;;;;;4.60;1.67;;;;;;;24.20;49.60;99108.97;5098951;28;20067;-63
2022/06/02 09:26:11;;;;;;;2.50;1.50;;;;;;;25.13;48.35;99098.63;5093014;28;20040;-64
2022/06/02 09:29:02;;;;;;;4.45;1.13;;;;;;;26.27;45.91;99101.25;5112589;28;20390;-64
2022/06/02 09:32:02;;;;;;;2.70;1.13;;;;;;;25.42;48.10;99102.16;5106729;28;20032;-65
2022/06/02 09:35:19;;;;;;;1.83;1.20;;;;;;;25.17;48.67;99095.38;5112989;28;20280;-64
2022/06/02 09:38:36;;;;;;;1.48;1.08;;;;;;;25.74;48.10;99099.13;5113107;28;20032;-65
2022/06/02 09:41:41;;;;;;;4.35;1.20;;;;;;;25.62;47.32;99096.13;5112970;28;20489;-64
2022/06/02 09:44:53;;;;;;;2.70;1.27;;;;;;;26.30;45.61;99103.53;5112478;28;20493;-63
2022/06/02 09:47:37;;;;;;;;;;;;;;;26.73;44.78;99090.88;5097258;28;20047;-65
2022/06/02 09:50:30;;;;;;;2.90;1.10;;;;;;;26.30;44.27;99100.00;5099105;28;20031;-65
2022/06/02 09:53:37;;;;;;;1.83;1.05;;;;;;;25.29;46.58;99108.25;5109478;28;20046;-65
2022/06/02 09:56:21;;;;;;;2.85;1.20;;;;;;;24.27;49.02;99109.84;5099338;28;20036;-65
2022/06/02 09:59:34;;;;;;;2.38;1.00;;;;;;;24.69;48.20;99102.09;5118772;27;20046;-65
2022/06/02 10:02:49;;;;;;;2.20;1.00;;;;;;;26.31;45.57;99098.97;5092071;28;20040;-65
2022/06/02 10:05:47;;;;;;;2.25;1.33;;;;;;;25.65;46.32;99103.81;5081959;28;20085;-64
2022/06/02 10:08:58;;;;;;;5.32;1.35;;;;;;;26.05;45.62;99103.19;5109654;28;20054;-65
2022/06/02 10:11:49;;;;;;;;;;;;;;;24.98;48.11;99110.25;5101609;28;20051;-64
2022/06/02 10:14:55;;;;;;;6.15;1.00;;;;;;;26.05;46.31;99095.16;5112585;28;19972;-64
2022/06/02 10:17:52;;;;;;;2.53;1.30;;;;;;;26.87;43.31;99098.94;5101211;28;20529;-64
2022/06/02 10:20:50;;;;;;;1.65;1.10;;;;;;;26.58;44.97;99096.44;5102235;28;20398;-64
2022/06/02 10:24:00;;;;;;;1.45;1.05;;;;;;;26.74;44.21;99102.44;5091952;28;20036;-65
2022/06/02 10:27:26;;;;;;;1.50;1.30;;;;;;;26.91;43.19;99103.72;5105804;28;20032;-64
2022/06/02 10:30:32;;;;;;;3.33;1.23;;;;;;;26.03;45.78;99098.03;5096621;28;20577;-66
2022/06/02 10:33:43;;;;;;;2.92;1.10;;;;;;;25.60;47.25;99101.69;5112866;28;20043;-66
2022/06/02 10:36:54;;;;;;;1.95;1.10;;;;;;;25.86;45.79;99094.03;5111080;28;20379;-64
2022/06/02 10:40:12;;;;;;;1.67;1.20;;;;;;;25.63;47.30;99098.63;5092388;28;20490;-65
2022/06/02 10:43:16;;;;;;;2.17;1.30;;;;;;;26.05;46.00;99103.19;5105096;28;20035;-64
2022/06/02 10:46:20;;;;;;;4.65;1.50;;;;;;;25.43;47.42;99093.09;5100706;28;20437;-64
2022/06/02 10:49:26;;;;;;;3.47;1.40;;;;;;;25.86;46.13;99104.75;5093418;28;20521;-64
2022/06/02 10:52:39;;;;;;;3.00;1.70;;;;;;;27.19;43.09;99096.56;5108992;28;20113;-65
2022/06/02 10:55:42;;;;;;;5.82;1.70;;;;;;;27.16;43.37;99100.47;5106123;28;20055;-66
2022/06/02 10:58:55;;;;;;;2.17;1.25;;;;;;;27.60;41.10;99097.31;5099646;28;20411;-64
2022/06/02 11:01:43;;;;;;;7.13;1.20;;;;;;;27.62;41.38;99097.13;5093139;28;20039;-65
2022/06/02 11:05:06;;;;;;;2.88;1.65;;;;;;;26.11;44.08;99105.13;5113821;28;20063;-64
2022/06/02 11:08:24;;;;;;;6.85;1.83;;;;;;;27.55;41.97;99102.50;5108203;28;20035;-66
2022/06/02 11:11:10;;;;;;;2.53;1.50;;;;;;;26.33;43.01;99115.75;5104530;28;20089;-65
2022/06/02 11:14:03;;;;;;;1.95;1.27;;;;;;;26.92;41.96;99105.38;5113847;28;20384;-65
2022/06/02 11:17:12;;;;;;;8.38;1.33;;;;;;;26.05;44.40;99095.16;5116270;28;20061;-64
2022/06/02 11:20:35;;;;;;;1.52;1.13;;;;;;;26.77;42.40;99099.34;5113364;28;20040;-66
2022/06/02 11:23:53;;;;;;;3.33;1.13;;;;;;;28.21;39.33;99104.44;5096689;28;20040;-67
2022/06/02 11:26:56;;;;;;;2.28;1.13;;;;;;;27.06;41.18;99092.81;5104900;28;20115;-67
2022/06/02 11:30:12;;;;;;;6.07;1.33;;;;;;;25.76;41.38;99095.22;5104623;28;20052;-65
2022/06/02 11:33:15;;;;;;;2.67;1.33;;;;;;;26.03;42.50;99097.22;5093240;28;20058;-64
2022/06/02 11:36:17;;;;;;;2.70;1.65;;;;;;;27.00;40.66;99082.00;5097827;28;20059;-63
2022/06/02 11:39:48;;;;;;;3.22;1.25;;;;;;;27.35;41.24;99087.25;5076154;28;20044;-65
2022/06/02 11:43:08;;;;;;;1.83;1.10;;;;;;;27.87;38.72;99091.09;5102342;28;20040;-66
2022/06/02 11:46:17;;;;;;;2.08;1.10;;;;;;;27.81;38.78;99091.94;5099929;28;20062;-65
2022/06/02 11:49:27;;;;;;;5.28;1.10;;;;;;;28.11;38.56;99097.66;5114883;28;20417;-64
2022/06/02 11:52:38;;;;;;;2.83;1.10;;;;;;;27.55;38.05;99099.81;5105129;28;20040;-63
2022/06/02 11:55:46;;;;;;;1.55;1.13;;;;;;;26.42;41.14;99108.38;5097071;28;20056;-63
2022/06/02 11:59:17;;;;;;;3.42;1.30;;;;;;;26.79;39.13;99103.50;5096077;28;20413;-67
2022/06/02 12:02:23;;;;;;;9.27;1.67;;;;;;;28.05;36.69;99103.88;5097791;28;20047;-65
2022/06/02 12:05:30;;;;;;;3.33;1.20;;;;;;;28.04;36.62;99113.81;5095083;28;20044;-65
2022/06/02 12:08:48;;;;;;;5.55;1.45;;;;;;;27.86;36.26;99102.91;5093967;28;20125;-64
2022/06/02 12:11:45;;;;;;;2.65;1.40;;;;;;;28.53;35.67;99104.50;5133100;27;20056;-67
2022/06/02 12:14:43;;;;;;;2.58;1.45;;;;;;;28.20;37.11;99098.25;5098425;28;20063;-64
2022/06/02 12:17:54;;;;;;;5.75;1.38;;;;;;;28.22;37.72;99090.75;5096604;28;20032;-63
2022/06/02 12:21:06;;;;;;;1.77;1.10;;;;;;;28.99;35.84;99099.91;5095448;28;20066;-64
2022/06/02 12:23:58;;;;;;;2.05;1.00;;;;;;;29.10;35.95;99079.50;5096169;28;20036;-64
2022/06/02 12:26:45;;;;;;;2.13;1.15;;;;;;;28.87;36.21;99090.84;5097564;28;20101;-64
2022/06/02 12:30:10;;;;;;;2.75;1.13;;;;;;;27.85;38.29;99085.09;5096216;28;20542;-64
2022/06/02 12:33:13;;;;;;;2.55;1.20;;;;;;;28.09;36.12;99086.25;5099373;28;20038;-64
2022/06/02 12:36:20;;;;;;;2.45;1.00;;;;;;;29.21;35.48;99085.22;5115040;27;20062;-64
2022/06/02 12:39:23;;;;;;;2.00;1.05;;;;;;;29.21;34.86;99077.16;5099625;28;20043;-64
2022/06/02 12:42:29;;;;;;;3.47;1.00;;;;;;;28.77;33.86;99092.16;5098045;28;20028;-63
2022/06/02 12:45:45;;;;;;;3.53;1.17;;;;;;;27.01;36.46;99084.53;5084083;28;20367;-64
2022/06/02 12:49:08;;;;;;;1.25;0.98;;;;;;;28.06;35.93;99077.81;5096425;28;20047;-65
2022/06/02 12:52:03;;;;;;;1.73;1.05;;;;;;;28.78;35.46;99074.13;5093766;28;20036;-64
2022/06/02 12:55:06;;;;;;;3.58;1.00;;;;;;;29.40;33.09;99069.91;5103676;28;20429;-64
2022/06/02 12:58:06;;;;;;;1.50;1.00;;;;;;;29.75;31.92;99066.66;5096249;28;20036;-64
2022/06/02 13:01:02;;;;;;;1.20;1.00;;;;;;;29.87;32.17;99074.00;5094531;28;20076;-65
2022/06/02 13:03:55;;;;;;;1.80;1.05;;;;;;;28.10;34.64;99071.78;5094623;28;20286;-64
2022/06/02 13:07:18;;;;;;;3.75;1.10;;;;;;;28.57;35.00;99077.97;5098006;28;20051;-64
2022/06/02 13:10:28;;;;;;;1.27;0.88;;;;;;;29.30;32.78;99056.94;5094291;28;20497;-64
2022/06/02 13:13:34;;;;;;;1.75;0.90;;;;;;;29.09;29.69;99061.69;5093422;28;20415;-63
2022/06/02 13:16:47;;;;;;;4.13;1.08;;;;;;;29.52;30.59;99060.03;5096875;28;20044;-64
2022/06/02 13:19:38;;;;;;;2.90;0.80;;;;;;;29.86;30.08;99073.22;5093168;28;20067;-65
2022/06/02 13:23:00;;;;;;;2.25;1.05;;;;;;;29.84;28.37;99061.81;5097154;28;20119;-66
2022/06/02 13:26:00;;;;;;;1.45;0.80;;;;;;;30.12;28.32;99062.31;5093393;28;20383;-64
2022/06/02 13:29:05;;;;;;;2.30;0.98;;;;;;;28.23;30.60;99068.19;5092660;28;20502;-63
2022/06/02 13:32:20;;;;;;;1.52;0.80;;;;;;;29.54;29.68;99062.53;5099513;28;20462;-64
2022/06/02 13:35:24;;;;;;;1.60;0.80;;;;;;;29.71;28.57;99064.66;5098246;28;20044;-65
2022/06/02 13:38:18;;;;;;;1.48;0.93;;;;;;;29.90;27.99;99059.25;5100414;28;20661;-64
2022/06/02 13:41:08;;;;;;;2.83;1.00;;;;;;;29.87;27.56;99061.34;5100099;28;20390;-65
2022/06/02 13:44:21;;;;;;;2.03;0.70;;;;;;;29.61;27.32;99057.06;5092319;28;20047;-63
2022/06/02 13:47:57;;;;;;;1.45;0.90;;;;;;;29.00;28.29;99041.44;5096934;28;20040;-63
2022/06/02 13:50:51;;;;;;;1.52;0.82;;;;;;;29.10;28.50;99049.03;5094999;28;20105;-63
2022/06/02 13:57:31;;;;;;;1.13;0.80;;;;;;;29.50;27.23;99045.13;5093450;28;20032;-66
2022/06/02 14:00:28;;;;;;;1.65;0.70;;;;;;;28.63;28.19;99042.09;5092868;28;20509;-61
2022/06/02 14:03:35;;;;;;;2.63;0.85;;;;;;;27.84;30.21;99043.91;5098617;28;20118;-62
2022/06/02 14:06:23;;;;;;;0.90;0.73;;;;;;;28.19;30.45;99047.31;5091654;28;20036;-64
2022/06/02 14:09:28;;;;;;;2.25;0.80;;;;;;;27.93;30.59;99049.88;5097750;28;20035;-63
2022/06/02 14:12:26;;;;;;;0.80;0.68;;;;;;;28.23;29.78;99043.13;5096886;28;20032;-63
2022/06/02 14:15:22;;;;;;;0.90;0.70;;;;;;;27.75;30.77;99037.94;5097087;28;20036;-59
2022/06/02 14:18:24;;;;;;;1.45;0.60;;;;;;;28.24;30.65;99050.16;5103614;28;20051;-59
2022/06/02 14:21:28;;;;;;;2.35;0.95;;;;;;;28.61;29.35;99047.69;5111502;28;20044;-66
2022/06/02 14:24:32;;;;;;;2.72;1.40;;;;;;;28.37;29.17;99051.97;5106070;28;20043;-63
2022/06/02 14:27:44;;;;;;;1.85;0.88;;;;;;;28.86;29.34;99046.91;5106122;28;20036;-63
2022/06/02 14:30:40;;;;;;;0.98;0.70;;;;;;;28.98;29.35;99048.91;5109828;28;20062;-62
2022/06/02 14:33:40;;;;;;;1.65;1.00;;;;;;;28.38;30.85;99045.56;5107615;28;20039;-63
2022/06/02 14:36:54;;;;;;;2.25;0.88;;;;;;;28.18;31.15;99049.16;5106896;28;20110;-63
2022/06/02 14:40:17;;;;;;;1.40;0.95;;;;;;;27.58;31.04;99045.63;5106074;28;20048;-62